Baton Rouge Metropolitan, Ryan Field
KBTR : now visible

Aeroporto :











RITROVATECI SU...

 
LOGIN :

Iscrizione | Disclaimer

   EN    FR    IT 

 









Sommario :    VFR   VFR Marginale   IFR   IFR Intensivo   IFR Molto Intensivo
Visibilità : 
Base nubi : 
>= 8 km
>= 3000ft
5 / 8 km
1000 / 3000 ft
1500m / 5 km
500 / 1000 ft
800 / 1500m
200 / 500 ft
< 800m
< 200 ft
Simboli :   Temporali  Nebbia  Neve Forte  Precipitazioni Forti  Vento > 20 kt







- Altitudine del aeroporto : 70 ft
- Codice IATA : BTR


KBTR - Baton Rouge Metropolitan, Ryan Field

ULTIMO METAR :
  • 230353Z 16003KT 10SM CLR 14/08 A3015 RMK AO2 SLP210 T01390078

METARs OBSOLETI :
  • 230253Z 00000KT 10SM CLR 14/07 A3014 RMK AO2 SLP204 T01390072 53016
  • 230153Z 17003KT 10SM CLR 16/06 A3011 RMK AO2 SLP196 T01560056

TAF KBTR
Valido dal 23 a 00 ore il 24 a 00 ore UTC


222332Z 2300/2324 00000KT P6SM SKC
FM231000 00000KT 6SM BR FEW110 SCT250
FM231600 15007KT P6SM SCT250
FIR KZHU / America del Nord



MetMap, La meteo Aeronautica in un colpo d'occhio ! - Copyright ORBIFLY Dicembre 2007 - Disclaimer

ORBIFLY MET'MAP TEAM :

Programmazione e sviluppo : Alexandra Zaïnal
Concezione e sviluppo : Baudouin d'Aumeries
Co-Programmazione e sviluppo : Marc-Olivier Méhu
Supporto tecnico e logistico : Manuel Goepfert
Aiuto per la traduzione : Arnaldo La Scala

Contatto : metmap@orbifly.com




FONTI E CREDITI :

   NOAA       Earth
Advisory